sensor_id;sensor_type;location;lat;lon;timestamp;P1;durP1;ratioP1;P2;durP2;ratioP2
63555;SDS011;49700;48.072;7.800;2024-03-17T00:01:38;1.80;;;1.70;;
63555;SDS011;49700;48.072;7.800;2024-03-17T00:04:10;1.85;;;1.75;;
63555;SDS011;49700;48.072;7.800;2024-03-17T00:06:39;7.97;;;3.57;;
63555;SDS011;49700;48.072;7.800;2024-03-17T00:09:15;4.10;;;3.35;;
63555;SDS011;49700;48.072;7.800;2024-03-17T00:11:48;2.63;;;2.38;;
63555;SDS011;49700;48.072;7.800;2024-03-17T00:14:24;2.95;;;2.50;;
63555;SDS011;49700;48.072;7.800;2024-03-17T00:16:56;3.28;;;2.53;;
63555;SDS011;49700;48.072;7.800;2024-03-17T00:19:25;2.70;;;2.50;;
63555;SDS011;49700;48.072;7.800;2024-03-17T00:22:02;3.63;;;2.72;;
63555;SDS011;49700;48.072;7.800;2024-03-17T00:24:31;9.88;;;2.92;;
63555;SDS011;49700;48.072;7.800;2024-03-17T00:27:30;2.50;;;2.30;;
63555;SDS011;49700;48.072;7.800;2024-03-17T00:29:56;2.70;;;2.50;;
63555;SDS011;49700;48.072;7.800;2024-03-17T00:32:27;2.10;;;1.92;;
63555;SDS011;49700;48.072;7.800;2024-03-17T00:34:59;2.40;;;1.95;;
63555;SDS011;49700;48.072;7.800;2024-03-17T00:37:28;3.58;;;2.50;;
63555;SDS011;49700;48.072;7.800;2024-03-17T00:40:13;2.70;;;2.50;;
63555;SDS011;49700;48.072;7.800;2024-03-17T00:42:55;3.58;;;1.90;;
63555;SDS011;49700;48.072;7.800;2024-03-17T00:45:29;2.55;;;2.17;;
63555;SDS011;49700;48.072;7.800;2024-03-17T00:48:02;2.50;;;2.30;;
63555;SDS011;49700;48.072;7.800;2024-03-17T00:50:28;2.80;;;1.97;;
63555;SDS011;49700;48.072;7.800;2024-03-17T00:52:56;4.22;;;2.40;;
63555;SDS011;49700;48.072;7.800;2024-03-17T00:55:31;2.42;;;2.10;;
63555;SDS011;49700;48.072;7.800;2024-03-17T00:58:00;3.65;;;3.08;;
63555;SDS011;49700;48.072;7.800;2024-03-17T01:00:35;2.33;;;1.77;;
63555;SDS011;49700;48.072;7.800;2024-03-17T01:03:07;3.15;;;1.40;;
63555;SDS011;49700;48.072;7.800;2024-03-17T01:05:38;1.33;;;1.13;;
63555;SDS011;49700;48.072;7.800;2024-03-17T01:08:11;3.55;;;2.08;;
63555;SDS011;49700;48.072;7.800;2024-03-17T01:10:41;1.88;;;1.75;;
63555;SDS011;49700;48.072;7.800;2024-03-17T01:13:21;2.50;;;1.45;;
63555;SDS011;49700;48.072;7.800;2024-03-17T01:18:32;3.60;;;1.90;;
63555;SDS011;49700;48.072;7.800;2024-03-17T01:23:47;3.40;;;2.15;;
63555;SDS011;49700;48.072;7.800;2024-03-17T01:26:18;1.67;;;1.52;;
63555;SDS011;49700;48.072;7.800;2024-03-17T01:28:44;2.00;;;1.80;;
63555;SDS011;49700;48.072;7.800;2024-03-17T01:31:10;5.30;;;1.60;;
63555;SDS011;49700;48.072;7.800;2024-03-17T01:33:38;2.97;;;1.83;;
63555;SDS011;49700;48.072;7.800;2024-03-17T01:36:08;2.10;;;1.48;;
63555;SDS011;49700;48.072;7.800;2024-03-17T01:38:40;1.90;;;1.65;;
63555;SDS011;49700;48.072;7.800;2024-03-17T01:41:11;2.28;;;1.30;;
63555;SDS011;49700;48.072;7.800;2024-03-17T01:43:45;2.53;;;1.70;;
63555;SDS011;49700;48.072;7.800;2024-03-17T01:46:14;1.80;;;1.60;;
63555;SDS011;49700;48.072;7.800;2024-03-17T01:48:43;3.55;;;2.08;;
63555;SDS011;49700;48.072;7.800;2024-03-17T01:51:18;4.38;;;2.65;;
63555;SDS011;49700;48.072;7.800;2024-03-17T01:53:50;1.88;;;1.67;;
63555;SDS011;49700;48.072;7.800;2024-03-17T01:56:20;1.98;;;1.83;;
63555;SDS011;49700;48.072;7.800;2024-03-17T01:58:56;2.97;;;1.80;;
63555;SDS011;49700;48.072;7.800;2024-03-17T02:01:23;3.83;;;2.15;;
63555;SDS011;49700;48.072;7.800;2024-03-17T02:03:58;2.88;;;1.48;;
63555;SDS011;49700;48.072;7.800;2024-03-17T02:06:30;3.58;;;1.88;;
63555;SDS011;49700;48.072;7.800;2024-03-17T02:08:56;3.00;;;2.70;;
63555;SDS011;49700;48.072;7.800;2024-03-17T02:11:28;3.85;;;2.50;;
63555;SDS011;49700;48.072;7.800;2024-03-17T02:14:00;1.80;;;1.70;;
63555;SDS011;49700;48.072;7.800;2024-03-17T02:16:43;1.95;;;1.85;;
63555;SDS011;49700;48.072;7.800;2024-03-17T02:19:24;2.00;;;1.88;;
63555;SDS011;49700;48.072;7.800;2024-03-17T02:22:02;3.15;;;1.80;;
63555;SDS011;49700;48.072;7.800;2024-03-17T02:24:49;2.30;;;1.80;;
63555;SDS011;49700;48.072;7.800;2024-03-17T02:27:18;2.58;;;1.98;;
63555;SDS011;49700;48.072;7.800;2024-03-17T02:29:44;3.23;;;1.97;;
63555;SDS011;49700;48.072;7.800;2024-03-17T02:32:10;3.08;;;2.10;;
63555;SDS011;49700;48.072;7.800;2024-03-17T02:34:37;2.50;;;1.90;;
63555;SDS011;49700;48.072;7.800;2024-03-17T02:37:04;2.13;;;1.77;;
63555;SDS011;49700;48.072;7.800;2024-03-17T02:39:32;2.78;;;2.40;;
63555;SDS011;49700;48.072;7.800;2024-03-17T02:42:02;2.38;;;2.17;;
63555;SDS011;49700;48.072;7.800;2024-03-17T02:44:32;2.45;;;2.20;;
63555;SDS011;49700;48.072;7.800;2024-03-17T02:46:59;2.65;;;2.03;;
63555;SDS011;49700;48.072;7.800;2024-03-17T02:49:25;3.00;;;2.30;;
63555;SDS011;49700;48.072;7.800;2024-03-17T02:51:52;2.53;;;2.33;;
63555;SDS011;49700;48.072;7.800;2024-03-17T02:54:21;7.78;;;2.00;;
63555;SDS011;49700;48.072;7.800;2024-03-17T02:56:48;2.85;;;2.55;;
63555;SDS011;49700;48.072;7.800;2024-03-17T02:59:13;1.88;;;1.77;;
63555;SDS011;49700;48.072;7.800;2024-03-17T03:01:39;2.50;;;2.30;;
63555;SDS011;49700;48.072;7.800;2024-03-17T03:04:05;2.80;;;2.60;;
63555;SDS011;49700;48.072;7.800;2024-03-17T03:06:31;2.27;;;2.07;;
63555;SDS011;49700;48.072;7.800;2024-03-17T03:08:58;4.23;;;2.60;;
63555;SDS011;49700;48.072;7.800;2024-03-17T03:11:23;3.23;;;2.07;;
63555;SDS011;49700;48.072;7.800;2024-03-17T03:13:49;2.77;;;2.30;;
63555;SDS011;49700;48.072;7.800;2024-03-17T03:16:14;2.80;;;2.03;;
63555;SDS011;49700;48.072;7.800;2024-03-17T03:18:40;2.47;;;2.27;;
63555;SDS011;49700;48.072;7.800;2024-03-17T03:21:06;2.90;;;2.40;;
63555;SDS011;49700;48.072;7.800;2024-03-17T03:23:32;3.43;;;2.27;;
63555;SDS011;49700;48.072;7.800;2024-03-17T03:25:58;3.27;;;2.00;;
63555;SDS011;49700;48.072;7.800;2024-03-17T03:28:25;2.72;;;2.33;;
63555;SDS011;49700;48.072;7.800;2024-03-17T03:30:51;9.25;;;2.38;;
63555;SDS011;49700;48.072;7.800;2024-03-17T03:33:18;2.97;;;2.47;;
63555;SDS011;49700;48.072;7.800;2024-03-17T03:35:44;2.78;;;2.55;;
63555;SDS011;49700;48.072;7.800;2024-03-17T03:38:11;5.25;;;3.10;;
63555;SDS011;49700;48.072;7.800;2024-03-17T03:40:36;3.50;;;3.20;;
63555;SDS011;49700;48.072;7.800;2024-03-17T03:43:02;2.40;;;2.20;;
63555;SDS011;49700;48.072;7.800;2024-03-17T03:45:27;5.23;;;2.23;;
63555;SDS011;49700;48.072;7.800;2024-03-17T03:47:53;4.87;;;2.07;;
63555;SDS011;49700;48.072;7.800;2024-03-17T03:50:21;3.07;;;2.73;;
63555;SDS011;49700;48.072;7.800;2024-03-17T03:52:48;5.57;;;2.95;;
63555;SDS011;49700;48.072;7.800;2024-03-17T03:55:15;3.33;;;2.40;;
63555;SDS011;49700;48.072;7.800;2024-03-17T03:57:41;2.92;;;2.30;;
63555;SDS011;49700;48.072;7.800;2024-03-17T04:00:07;6.40;;;2.40;;
63555;SDS011;49700;48.072;7.800;2024-03-17T04:02:40;3.33;;;2.83;;
63555;SDS011;49700;48.072;7.800;2024-03-17T04:05:07;3.13;;;2.83;;
63555;SDS011;49700;48.072;7.800;2024-03-17T04:07:33;4.13;;;2.30;;
63555;SDS011;49700;48.072;7.800;2024-03-17T04:09:59;2.40;;;2.10;;
63555;SDS011;49700;48.072;7.800;2024-03-17T04:12:28;3.35;;;2.75;;
63555;SDS011;49700;48.072;7.800;2024-03-17T04:14:56;3.35;;;2.65;;
63555;SDS011;49700;48.072;7.800;2024-03-17T04:17:22;3.10;;;2.55;;
63555;SDS011;49700;48.072;7.800;2024-03-17T04:19:48;3.85;;;2.60;;
63555;SDS011;49700;48.072;7.800;2024-03-17T04:22:15;6.85;;;3.20;;
63555;SDS011;49700;48.072;7.800;2024-03-17T04:24:42;2.50;;;2.25;;
63555;SDS011;49700;48.072;7.800;2024-03-17T04:27:08;2.85;;;2.30;;
63555;SDS011;49700;48.072;7.800;2024-03-17T04:29:34;2.10;;;1.90;;
63555;SDS011;49700;48.072;7.800;2024-03-17T04:32:00;2.43;;;2.00;;
63555;SDS011;49700;48.072;7.800;2024-03-17T04:34:26;2.50;;;2.30;;
63555;SDS011;49700;48.072;7.800;2024-03-17T04:36:52;2.67;;;2.40;;
63555;SDS011;49700;48.072;7.800;2024-03-17T04:39:18;2.90;;;2.10;;
63555;SDS011;49700;48.072;7.800;2024-03-17T04:41:45;2.40;;;2.20;;
63555;SDS011;49700;48.072;7.800;2024-03-17T04:44:12;3.08;;;2.20;;
63555;SDS011;49700;48.072;7.800;2024-03-17T04:46:37;1.90;;;1.70;;
63555;SDS011;49700;48.072;7.800;2024-03-17T04:49:02;6.40;;;1.60;;
63555;SDS011;49700;48.072;7.800;2024-03-17T04:51:28;1.63;;;1.43;;
63555;SDS011;49700;48.072;7.800;2024-03-17T04:53:54;2.30;;;1.70;;
63555;SDS011;49700;48.072;7.800;2024-03-17T04:56:20;2.08;;;1.70;;
63555;SDS011;49700;48.072;7.800;2024-03-17T04:58:46;2.50;;;2.00;;
63555;SDS011;49700;48.072;7.800;2024-03-17T05:01:11;3.53;;;2.00;;
63555;SDS011;49700;48.072;7.800;2024-03-17T05:03:38;2.17;;;1.55;;
63555;SDS011;49700;48.072;7.800;2024-03-17T05:06:04;2.13;;;1.93;;
63555;SDS011;49700;48.072;7.800;2024-03-17T05:08:31;2.60;;;2.20;;
63555;SDS011;49700;48.072;7.800;2024-03-17T05:11:00;4.03;;;1.88;;
63555;SDS011;49700;48.072;7.800;2024-03-17T05:13:30;2.95;;;2.08;;
63555;SDS011;49700;48.072;7.800;2024-03-17T05:15:57;4.22;;;2.45;;
63555;SDS011;49700;48.072;7.800;2024-03-17T05:18:22;3.07;;;2.00;;
63555;SDS011;49700;48.072;7.800;2024-03-17T05:21:00;2.70;;;2.00;;
63555;SDS011;49700;48.072;7.800;2024-03-17T05:23:29;2.88;;;2.67;;
63555;SDS011;49700;48.072;7.800;2024-03-17T05:25:56;2.40;;;2.05;;
63555;SDS011;49700;48.072;7.800;2024-03-17T05:28:28;2.40;;;2.20;;
63555;SDS011;49700;48.072;7.800;2024-03-17T05:30:54;2.75;;;2.10;;
63555;SDS011;49700;48.072;7.800;2024-03-17T05:33:22;2.30;;;2.10;;
63555;SDS011;49700;48.072;7.800;2024-03-17T05:35:52;2.35;;;2.13;;
63555;SDS011;49700;48.072;7.800;2024-03-17T05:38:22;3.78;;;2.90;;
63555;SDS011;49700;48.072;7.800;2024-03-17T05:41:04;4.28;;;3.00;;
63555;SDS011;49700;48.072;7.800;2024-03-17T05:43:34;4.45;;;3.03;;
63555;SDS011;49700;48.072;7.800;2024-03-17T05:46:07;2.90;;;2.70;;
63555;SDS011;49700;48.072;7.800;2024-03-17T05:48:36;4.30;;;2.53;;
63555;SDS011;49700;48.072;7.800;2024-03-17T05:51:10;3.58;;;2.95;;
63555;SDS011;49700;48.072;7.800;2024-03-17T05:53:37;4.28;;;2.67;;
63555;SDS011;49700;48.072;7.800;2024-03-17T05:56:09;7.35;;;3.70;;
63555;SDS011;49700;48.072;7.800;2024-03-17T05:58:36;2.97;;;2.42;;
63555;SDS011;49700;48.072;7.800;2024-03-17T06:01:02;4.30;;;2.90;;
63555;SDS011;49700;48.072;7.800;2024-03-17T06:03:28;5.32;;;3.10;;
63555;SDS011;49700;48.072;7.800;2024-03-17T06:05:54;3.70;;;2.37;;
63555;SDS011;49700;48.072;7.800;2024-03-17T06:08:19;4.13;;;3.15;;
63555;SDS011;49700;48.072;7.800;2024-03-17T06:10:48;4.60;;;3.80;;
63555;SDS011;49700;48.072;7.800;2024-03-17T06:13:14;5.38;;;3.47;;
63555;SDS011;49700;48.072;7.800;2024-03-17T06:15:43;4.20;;;2.97;;
63555;SDS011;49700;48.072;7.800;2024-03-17T06:18:12;3.55;;;3.25;;
63555;SDS011;49700;48.072;7.800;2024-03-17T06:20:45;3.50;;;3.20;;
63555;SDS011;49700;48.072;7.800;2024-03-17T06:23:12;4.90;;;3.67;;
63555;SDS011;49700;48.072;7.800;2024-03-17T06:25:42;3.90;;;3.55;;
63555;SDS011;49700;48.072;7.800;2024-03-17T06:28:13;3.20;;;2.90;;
63555;SDS011;49700;48.072;7.800;2024-03-17T06:30:40;3.65;;;3.00;;
63555;SDS011;49700;48.072;7.800;2024-03-17T06:33:06;3.65;;;3.13;;
63555;SDS011;49700;48.072;7.800;2024-03-17T06:35:31;4.80;;;3.17;;
63555;SDS011;49700;48.072;7.800;2024-03-17T06:38:00;5.22;;;4.72;;
63555;SDS011;49700;48.072;7.800;2024-03-17T06:40:26;10.30;;;4.55;;
63555;SDS011;49700;48.072;7.800;2024-03-17T06:42:52;4.67;;;3.60;;
63555;SDS011;49700;48.072;7.800;2024-03-17T06:45:18;4.53;;;3.83;;
63555;SDS011;49700;48.072;7.800;2024-03-17T06:47:45;5.15;;;4.07;;
63555;SDS011;49700;48.072;7.800;2024-03-17T06:50:11;4.20;;;3.90;;
63555;SDS011;49700;48.072;7.800;2024-03-17T06:52:37;9.10;;;5.30;;
63555;SDS011;49700;48.072;7.800;2024-03-17T06:55:03;8.40;;;6.20;;
63555;SDS011;49700;48.072;7.800;2024-03-17T06:57:29;8.07;;;6.07;;
63555;SDS011;49700;48.072;7.800;2024-03-17T06:59:54;7.70;;;5.20;;
63555;SDS011;49700;48.072;7.800;2024-03-17T07:02:20;6.57;;;5.10;;
63555;SDS011;49700;48.072;7.800;2024-03-17T07:04:45;7.23;;;6.53;;
63555;SDS011;49700;48.072;7.800;2024-03-17T07:07:12;5.93;;;4.80;;
63555;SDS011;49700;48.072;7.800;2024-03-17T07:09:38;9.85;;;6.13;;
63555;SDS011;49700;48.072;7.800;2024-03-17T07:12:08;12.05;;;5.15;;
63555;SDS011;49700;48.072;7.800;2024-03-17T07:14:34;6.80;;;6.10;;
63555;SDS011;49700;48.072;7.800;2024-03-17T07:17:00;4.80;;;4.03;;
63555;SDS011;49700;48.072;7.800;2024-03-17T07:19:25;15.03;;;5.30;;
63555;SDS011;49700;48.072;7.800;2024-03-17T07:21:50;8.87;;;5.23;;
63555;SDS011;49700;48.072;7.800;2024-03-17T07:24:16;5.97;;;4.83;;
63555;SDS011;49700;48.072;7.800;2024-03-17T07:26:41;4.97;;;4.23;;
63555;SDS011;49700;48.072;7.800;2024-03-17T07:29:07;6.00;;;4.73;;
63555;SDS011;49700;48.072;7.800;2024-03-17T07:31:33;8.98;;;4.03;;
63555;SDS011;49700;48.072;7.800;2024-03-17T07:33:59;5.33;;;3.70;;
63555;SDS011;49700;48.072;7.800;2024-03-17T07:36:24;3.70;;;3.40;;
63555;SDS011;49700;48.072;7.800;2024-03-17T07:38:50;4.40;;;3.57;;
63555;SDS011;49700;48.072;7.800;2024-03-17T07:41:16;6.60;;;3.83;;
63555;SDS011;49700;48.072;7.800;2024-03-17T07:43:41;6.10;;;3.27;;
63555;SDS011;49700;48.072;7.800;2024-03-17T07:46:10;6.53;;;3.23;;
63555;SDS011;49700;48.072;7.800;2024-03-17T07:48:37;4.47;;;3.40;;
63555;SDS011;49700;48.072;7.800;2024-03-17T07:51:04;3.78;;;3.33;;
63555;SDS011;49700;48.072;7.800;2024-03-17T07:53:34;4.03;;;3.67;;
63555;SDS011;49700;48.072;7.800;2024-03-17T07:56:06;4.75;;;3.60;;
63555;SDS011;49700;48.072;7.800;2024-03-17T07:58:38;6.72;;;4.82;;
63555;SDS011;49700;48.072;7.800;2024-03-17T08:01:06;5.60;;;4.57;;
63555;SDS011;49700;48.072;7.800;2024-03-17T08:03:34;5.47;;;4.93;;
63555;SDS011;49700;48.072;7.800;2024-03-17T08:06:03;7.28;;;4.70;;
63555;SDS011;49700;48.072;7.800;2024-03-17T08:08:30;7.50;;;5.45;;
63555;SDS011;49700;48.072;7.800;2024-03-17T08:10:56;8.43;;;5.33;;
63555;SDS011;49700;48.072;7.800;2024-03-17T08:13:22;8.27;;;4.47;;
63555;SDS011;49700;48.072;7.800;2024-03-17T08:18:42;9.10;;;4.90;;
63555;SDS011;49700;48.072;7.800;2024-03-17T08:21:07;4.73;;;4.23;;
63555;SDS011;49700;48.072;7.800;2024-03-17T08:23:33;9.13;;;6.13;;
63555;SDS011;49700;48.072;7.800;2024-03-17T08:26:01;7.78;;;6.20;;
63555;SDS011;49700;48.072;7.800;2024-03-17T08:28:27;5.90;;;4.87;;
63555;SDS011;49700;48.072;7.800;2024-03-17T08:30:53;8.85;;;5.50;;
63555;SDS011;49700;48.072;7.800;2024-03-17T08:33:20;7.28;;;4.57;;
63555;SDS011;49700;48.072;7.800;2024-03-17T08:35:57;5.30;;;4.60;;
63555;SDS011;49700;48.072;7.800;2024-03-17T08:38:27;8.52;;;4.97;;
63555;SDS011;49700;48.072;7.800;2024-03-17T08:40:56;5.95;;;4.65;;
63555;SDS011;49700;48.072;7.800;2024-03-17T08:43:22;7.43;;;6.63;;
63555;SDS011;49700;48.072;7.800;2024-03-17T08:45:58;4.57;;;4.13;;
63555;SDS011;49700;48.072;7.800;2024-03-17T08:48:27;7.22;;;4.65;;
63555;SDS011;49700;48.072;7.800;2024-03-17T08:50:54;4.22;;;3.67;;
63555;SDS011;49700;48.072;7.800;2024-03-17T08:53:20;4.97;;;4.50;;
63555;SDS011;49700;48.072;7.800;2024-03-17T08:55:46;5.68;;;4.03;;
63555;SDS011;49700;48.072;7.800;2024-03-17T08:58:12;5.00;;;4.37;;
63555;SDS011;49700;48.072;7.800;2024-03-17T09:00:37;7.40;;;4.20;;
63555;SDS011;49700;48.072;7.800;2024-03-17T09:03:03;7.70;;;4.50;;
63555;SDS011;49700;48.072;7.800;2024-03-17T09:05:29;6.13;;;4.23;;
63555;SDS011;49700;48.072;7.800;2024-03-17T09:07:57;6.30;;;4.80;;
63555;SDS011;49700;48.072;7.800;2024-03-17T09:10:22;5.47;;;4.37;;
63555;SDS011;49700;48.072;7.800;2024-03-17T09:12:49;5.25;;;4.43;;
63555;SDS011;49700;48.072;7.800;2024-03-17T09:15:14;9.40;;;4.10;;
63555;SDS011;49700;48.072;7.800;2024-03-17T09:17:40;7.30;;;5.07;;
63555;SDS011;49700;48.072;7.800;2024-03-17T09:20:06;8.60;;;4.43;;
63555;SDS011;49700;48.072;7.800;2024-03-17T09:22:36;11.30;;;5.55;;
63555;SDS011;49700;48.072;7.800;2024-03-17T09:25:05;7.22;;;4.85;;
63555;SDS011;49700;48.072;7.800;2024-03-17T09:27:32;7.38;;;5.30;;
63555;SDS011;49700;48.072;7.800;2024-03-17T09:29:59;12.32;;;4.80;;
63555;SDS011;49700;48.072;7.800;2024-03-17T09:32:25;6.78;;;5.40;;
63555;SDS011;49700;48.072;7.800;2024-03-17T09:34:50;5.40;;;4.30;;
63555;SDS011;49700;48.072;7.800;2024-03-17T09:37:16;6.10;;;4.80;;
63555;SDS011;49700;48.072;7.800;2024-03-17T09:39:41;9.88;;;5.80;;
63555;SDS011;49700;48.072;7.800;2024-03-17T09:42:14;6.60;;;5.10;;
63555;SDS011;49700;48.072;7.800;2024-03-17T09:44:45;5.78;;;4.95;;
63555;SDS011;49700;48.072;7.800;2024-03-17T09:47:15;7.63;;;5.30;;
63555;SDS011;49700;48.072;7.800;2024-03-17T09:49:46;6.55;;;5.38;;
63555;SDS011;49700;48.072;7.800;2024-03-17T09:52:16;10.80;;;5.45;;
63555;SDS011;49700;48.072;7.800;2024-03-17T09:55:15;6.93;;;5.25;;
63555;SDS011;49700;48.072;7.800;2024-03-17T09:57:41;6.32;;;5.18;;
63555;SDS011;49700;48.072;7.800;2024-03-17T10:00:11;4.80;;;4.10;;
63555;SDS011;49700;48.072;7.800;2024-03-17T10:02:45;8.02;;;6.13;;
63555;SDS011;49700;48.072;7.800;2024-03-17T10:05:17;6.78;;;5.10;;
63555;SDS011;49700;48.072;7.800;2024-03-17T10:07:45;8.88;;;4.78;;
63555;SDS011;49700;48.072;7.800;2024-03-17T10:10:11;9.60;;;4.83;;
63555;SDS011;49700;48.072;7.800;2024-03-17T10:12:37;6.70;;;5.15;;
63555;SDS011;49700;48.072;7.800;2024-03-17T10:15:03;6.80;;;4.73;;
63555;SDS011;49700;48.072;7.800;2024-03-17T10:17:33;5.28;;;4.78;;
63555;SDS011;49700;48.072;7.800;2024-03-17T10:22:57;5.90;;;4.75;;
63555;SDS011;49700;48.072;7.800;2024-03-17T10:25:33;10.05;;;4.88;;
63555;SDS011;49700;48.072;7.800;2024-03-17T10:28:04;8.57;;;5.05;;
63555;SDS011;49700;48.072;7.800;2024-03-17T10:30:36;9.40;;;5.97;;
63555;SDS011;49700;48.072;7.800;2024-03-17T10:33:02;6.90;;;5.93;;
63555;SDS011;49700;48.072;7.800;2024-03-17T10:35:33;8.85;;;4.85;;
63555;SDS011;49700;48.072;7.800;2024-03-17T10:40:26;7.55;;;4.35;;
63555;SDS011;49700;48.072;7.800;2024-03-17T10:42:54;6.13;;;5.50;;
63555;SDS011;49700;48.072;7.800;2024-03-17T10:45:20;12.23;;;5.72;;
63555;SDS011;49700;48.072;7.800;2024-03-17T10:47:50;8.80;;;5.60;;
63555;SDS011;49700;48.072;7.800;2024-03-17T10:50:25;10.10;;;5.18;;
63555;SDS011;49700;48.072;7.800;2024-03-17T10:52:55;6.53;;;5.00;;
63555;SDS011;49700;48.072;7.800;2024-03-17T10:55:27;9.95;;;6.20;;
63555;SDS011;49700;48.072;7.800;2024-03-17T10:57:57;12.07;;;5.05;;
63555;SDS011;49700;48.072;7.800;2024-03-17T11:00:26;6.65;;;5.50;;
63555;SDS011;49700;48.072;7.800;2024-03-17T11:02:54;6.05;;;5.30;;
63555;SDS011;49700;48.072;7.800;2024-03-17T11:05:21;6.90;;;5.28;;
63555;SDS011;49700;48.072;7.800;2024-03-17T11:07:53;6.50;;;5.15;;
63555;SDS011;49700;48.072;7.800;2024-03-17T11:10:26;7.68;;;5.80;;
63555;SDS011;49700;48.072;7.800;2024-03-17T11:12:57;7.13;;;5.85;;
63555;SDS011;49700;48.072;7.800;2024-03-17T11:17:52;8.30;;;5.82;;
63555;SDS011;49700;48.072;7.800;2024-03-17T11:20:21;8.10;;;5.85;;
63555;SDS011;49700;48.072;7.800;2024-03-17T11:22:49;6.63;;;5.55;;
63555;SDS011;49700;48.072;7.800;2024-03-17T11:25:37;8.15;;;5.65;;
63555;SDS011;49700;48.072;7.800;2024-03-17T11:28:03;9.80;;;5.38;;
63555;SDS011;49700;48.072;7.800;2024-03-17T11:39:17;5.25;;;4.22;;
63555;SDS011;49700;48.072;7.800;2024-03-17T11:41:52;5.93;;;4.95;;
63555;SDS011;49700;48.072;7.800;2024-03-17T11:49:38;5.72;;;5.07;;
63555;SDS011;49700;48.072;7.800;2024-03-17T11:52:12;9.63;;;6.18;;
63555;SDS011;49700;48.072;7.800;2024-03-17T11:57:11;6.03;;;4.63;;
63555;SDS011;49700;48.072;7.800;2024-03-17T11:59:38;9.15;;;5.32;;
63555;SDS011;49700;48.072;7.800;2024-03-17T12:04:46;7.72;;;6.10;;
63555;SDS011;49700;48.072;7.800;2024-03-17T12:07:14;9.02;;;5.47;;
63555;SDS011;49700;48.072;7.800;2024-03-17T12:09:44;6.30;;;4.95;;
63555;SDS011;49700;48.072;7.800;2024-03-17T12:14:47;8.23;;;5.40;;
63555;SDS011;49700;48.072;7.800;2024-03-17T12:17:14;10.18;;;5.18;;
63555;SDS011;49700;48.072;7.800;2024-03-17T12:19:45;6.03;;;4.72;;
63555;SDS011;49700;48.072;7.800;2024-03-17T12:22:15;6.83;;;5.50;;
63555;SDS011;49700;48.072;7.800;2024-03-17T12:24:43;5.10;;;4.60;;
63555;SDS011;49700;48.072;7.800;2024-03-17T12:27:16;6.60;;;4.50;;
63555;SDS011;49700;48.072;7.800;2024-03-17T12:29:49;5.40;;;4.57;;
63555;SDS011;49700;48.072;7.800;2024-03-17T12:32:21;5.45;;;4.60;;
63555;SDS011;49700;48.072;7.800;2024-03-17T12:34:49;11.25;;;4.70;;
63555;SDS011;49700;48.072;7.800;2024-03-17T12:37:21;6.47;;;4.95;;
63555;SDS011;49700;48.072;7.800;2024-03-17T12:39:48;7.90;;;6.50;;
63555;SDS011;49700;48.072;7.800;2024-03-17T12:42:15;6.47;;;5.53;;
63555;SDS011;49700;48.072;7.800;2024-03-17T12:44:48;6.60;;;5.47;;
63555;SDS011;49700;48.072;7.800;2024-03-17T12:47:19;7.05;;;6.35;;
63555;SDS011;49700;48.072;7.800;2024-03-17T12:52:18;5.65;;;5.10;;
63555;SDS011;49700;48.072;7.800;2024-03-17T12:54:45;6.07;;;5.38;;
63555;SDS011;49700;48.072;7.800;2024-03-17T12:57:39;7.07;;;6.38;;
63555;SDS011;49700;48.072;7.800;2024-03-17T13:00:24;8.15;;;6.68;;
63555;SDS011;49700;48.072;7.800;2024-03-17T13:03:02;15.48;;;9.40;;
63555;SDS011;49700;48.072;7.800;2024-03-17T13:05:29;7.93;;;6.85;;
63555;SDS011;49700;48.072;7.800;2024-03-17T13:07:56;6.20;;;5.60;;
63555;SDS011;49700;48.072;7.800;2024-03-17T13:10:22;10.13;;;6.95;;
63555;SDS011;49700;48.072;7.800;2024-03-17T13:13:00;7.68;;;6.88;;
63555;SDS011;49700;48.072;7.800;2024-03-17T13:15:27;8.23;;;5.88;;
63555;SDS011;49700;48.072;7.800;2024-03-17T13:17:54;8.10;;;5.28;;
63555;SDS011;49700;48.072;7.800;2024-03-17T13:20:19;6.30;;;5.70;;
63555;SDS011;49700;48.072;7.800;2024-03-17T13:22:45;5.60;;;4.70;;
63555;SDS011;49700;48.072;7.800;2024-03-17T13:25:18;12.13;;;5.63;;
63555;SDS011;49700;48.072;7.800;2024-03-17T13:27:48;6.78;;;5.22;;
63555;SDS011;49700;48.072;7.800;2024-03-17T13:30:14;12.03;;;7.67;;
63555;SDS011;49700;48.072;7.800;2024-03-17T13:32:41;10.38;;;6.18;;
63555;SDS011;49700;48.072;7.800;2024-03-17T13:35:19;7.53;;;5.25;;
63555;SDS011;49700;48.072;7.800;2024-03-17T13:37:46;6.70;;;4.82;;
63555;SDS011;49700;48.072;7.800;2024-03-17T13:40:15;9.38;;;5.07;;
63555;SDS011;49700;48.072;7.800;2024-03-17T13:42:44;8.85;;;5.30;;
63555;SDS011;49700;48.072;7.800;2024-03-17T13:45:13;6.10;;;5.15;;
63555;SDS011;49700;48.072;7.800;2024-03-17T13:47:39;9.23;;;4.75;;
63555;SDS011;49700;48.072;7.800;2024-03-17T13:50:05;7.97;;;6.18;;
63555;SDS011;49700;48.072;7.800;2024-03-17T13:52:36;8.13;;;4.75;;
63555;SDS011;49700;48.072;7.800;2024-03-17T13:55:03;6.47;;;4.65;;
63555;SDS011;49700;48.072;7.800;2024-03-17T13:57:32;7.05;;;5.10;;
63555;SDS011;49700;48.072;7.800;2024-03-17T13:59:58;4.65;;;4.07;;
63555;SDS011;49700;48.072;7.800;2024-03-17T14:02:23;7.17;;;4.67;;
63555;SDS011;49700;48.072;7.800;2024-03-17T14:04:49;6.97;;;4.67;;
63555;SDS011;49700;48.072;7.800;2024-03-17T14:07:14;6.70;;;4.67;;
63555;SDS011;49700;48.072;7.800;2024-03-17T14:09:41;6.67;;;5.20;;
63555;SDS011;49700;48.072;7.800;2024-03-17T14:12:07;5.22;;;3.85;;
63555;SDS011;49700;48.072;7.800;2024-03-17T14:14:33;4.55;;;3.85;;
63555;SDS011;49700;48.072;7.800;2024-03-17T14:16:59;7.07;;;3.73;;
63555;SDS011;49700;48.072;7.800;2024-03-17T14:19:25;4.00;;;3.30;;
63555;SDS011;49700;48.072;7.800;2024-03-17T14:21:50;5.40;;;4.73;;
63555;SDS011;49700;48.072;7.800;2024-03-17T14:24:16;5.20;;;3.67;;
63555;SDS011;49700;48.072;7.800;2024-03-17T14:26:41;7.47;;;4.50;;
63555;SDS011;49700;48.072;7.800;2024-03-17T14:29:07;6.50;;;4.33;;
63555;SDS011;49700;48.072;7.800;2024-03-17T14:31:33;6.43;;;4.60;;
63555;SDS011;49700;48.072;7.800;2024-03-17T14:34:03;7.20;;;4.55;;
63555;SDS011;49700;48.072;7.800;2024-03-17T14:36:32;6.55;;;4.30;;
63555;SDS011;49700;48.072;7.800;2024-03-17T14:39:00;4.82;;;3.88;;
63555;SDS011;49700;48.072;7.800;2024-03-17T14:41:29;5.10;;;3.75;;
63555;SDS011;49700;48.072;7.800;2024-03-17T14:43:56;6.03;;;4.03;;
63555;SDS011;49700;48.072;7.800;2024-03-17T14:46:22;4.68;;;3.50;;
63555;SDS011;49700;48.072;7.800;2024-03-17T14:48:48;8.65;;;6.38;;
63555;SDS011;49700;48.072;7.800;2024-03-17T14:51:24;6.60;;;5.00;;
63555;SDS011;49700;48.072;7.800;2024-03-17T14:53:49;7.23;;;6.07;;
63555;SDS011;49700;48.072;7.800;2024-03-17T14:56:17;9.25;;;7.10;;
63555;SDS011;49700;48.072;7.800;2024-03-17T14:58:43;10.93;;;6.70;;
63555;SDS011;49700;48.072;7.800;2024-03-17T15:01:11;8.23;;;5.35;;
63555;SDS011;49700;48.072;7.800;2024-03-17T15:03:37;6.57;;;4.50;;
63555;SDS011;49700;48.072;7.800;2024-03-17T15:06:03;7.68;;;5.32;;
63555;SDS011;49700;48.072;7.800;2024-03-17T15:08:29;8.13;;;5.28;;
63555;SDS011;49700;48.072;7.800;2024-03-17T15:10:55;6.43;;;4.88;;
63555;SDS011;49700;48.072;7.800;2024-03-17T15:13:21;9.53;;;4.63;;
63555;SDS011;49700;48.072;7.800;2024-03-17T15:15:48;5.95;;;4.60;;
63555;SDS011;49700;48.072;7.800;2024-03-17T15:18:15;7.80;;;5.30;;
63555;SDS011;49700;48.072;7.800;2024-03-17T15:20:41;9.73;;;4.22;;
63555;SDS011;49700;48.072;7.800;2024-03-17T15:23:07;8.80;;;4.97;;
63555;SDS011;49700;48.072;7.800;2024-03-17T15:25:32;10.30;;;4.87;;
63555;SDS011;49700;48.072;7.800;2024-03-17T15:27:58;7.73;;;6.23;;
63555;SDS011;49700;48.072;7.800;2024-03-17T15:30:26;13.68;;;7.35;;
63555;SDS011;49700;48.072;7.800;2024-03-17T15:32:54;6.10;;;5.25;;
63555;SDS011;49700;48.072;7.800;2024-03-17T15:35:23;9.17;;;6.00;;
63555;SDS011;49700;48.072;7.800;2024-03-17T15:37:49;6.47;;;4.82;;